createdAt,value
2023-02-28T08:20:20.827Z,48.64
2023-02-28T08:21:24.963Z,48.69
2023-02-28T08:22:29.104Z,48.55
2023-02-28T08:23:33.302Z,48.65
2023-02-28T08:24:37.474Z,48.56
2023-02-28T08:25:41.686Z,48.99
2023-02-28T08:26:45.814Z,48.78
2023-02-28T08:27:49.977Z,46.84
2023-02-28T08:28:56.094Z,46.98
2023-02-28T08:30:00.334Z,48
2023-02-28T08:31:04.436Z,48.09
2023-02-28T08:32:30.023Z,48.68
2023-02-28T08:33:34.351Z,49.24
2023-02-28T08:34:38.546Z,49.14
2023-02-28T08:35:42.956Z,49.04
2023-02-28T08:36:47.191Z,48.94
2023-02-28T08:37:51.327Z,49
2023-02-28T08:38:55.447Z,49.24
2023-02-28T08:39:59.627Z,49.04
2023-02-28T08:41:03.951Z,48.88
2023-02-28T08:42:09.927Z,48.75
2023-02-28T08:43:14.082Z,48.74
2023-02-28T08:44:18.223Z,48.85
2023-02-28T08:45:22.397Z,48.67
2023-02-28T08:46:26.555Z,48.84
2023-02-28T08:47:30.710Z,48.81
2023-02-28T08:48:34.859Z,48.85
2023-02-28T08:49:39.004Z,48.93
2023-02-28T08:50:46.535Z,48.98
2023-02-28T08:51:52.597Z,49.09
2023-02-28T08:52:56.738Z,49.06
2023-02-28T08:54:00.894Z,49.09
2023-02-28T08:55:05.036Z,49.17
2023-02-28T08:56:09.213Z,49.12
2023-02-28T08:57:13.393Z,49.19
2023-02-28T08:58:17.595Z,49.17
2023-02-28T08:59:21.776Z,49.32
2023-02-28T09:00:26.013Z,49.4
2023-02-28T09:01:31.801Z,49.58
2023-02-28T09:02:36.135Z,49.58
2023-02-28T09:03:40.579Z,48.91
2023-02-28T09:04:44.753Z,48.12
2023-02-28T09:05:48.900Z,47.83
2023-02-28T09:06:53.089Z,46.75
2023-02-28T09:07:57.224Z,46.27
2023-02-28T09:09:01.461Z,46.69
2023-02-28T09:10:05.608Z,47.64
2023-02-28T09:11:09.891Z,47.99
2023-02-28T09:12:14.047Z,48.23
2023-02-28T09:13:18.216Z,48.27
2023-02-28T09:14:22.347Z,48.29
2023-02-28T09:15:26.486Z,48.28
2023-02-28T09:16:30.909Z,48.33
2023-02-28T09:17:35.073Z,48.52
2023-02-28T09:18:39.496Z,48.7
2023-02-28T09:19:43.668Z,48.75
2023-02-28T09:20:47.810Z,48.79
2023-02-28T09:21:52.004Z,48.74
2023-02-28T09:22:56.170Z,48.82
2023-02-28T09:24:00.306Z,48.89
2023-02-28T09:25:04.464Z,48.86
2023-02-28T09:26:08.653Z,48.96
2023-02-28T09:27:13.391Z,49.06
2023-02-28T09:28:17.578Z,49.14
2023-02-28T09:29:21.760Z,49.2
2023-02-28T09:30:26.185Z,49.3
2023-02-28T09:31:30.364Z,49.35
2023-02-28T09:32:34.633Z,49.42
2023-02-28T09:33:38.792Z,49.38
2023-02-28T09:34:43.170Z,49.43
2023-02-28T09:35:47.361Z,49.49
2023-02-28T09:36:53.162Z,49.52
2023-02-28T09:37:57.579Z,49.52
2023-02-28T09:39:01.738Z,49.61
2023-02-28T09:40:05.897Z,49.57
2023-02-28T09:41:10.019Z,49.58
2023-02-28T09:42:14.137Z,49.43
2023-02-28T09:43:18.260Z,49.44
2023-02-28T09:44:22.415Z,49.35
2023-02-28T09:45:26.528Z,49.34
2023-02-28T09:46:31.026Z,49.26
2023-02-28T09:47:35.327Z,49.23
2023-02-28T09:48:42.560Z,49.2
2023-02-28T09:49:46.784Z,49.21
2023-02-28T09:50:50.906Z,49.17
2023-02-28T09:51:55.065Z,49.14
2023-02-28T09:52:59.194Z,49.15
2023-02-28T09:54:04.380Z,49.18
2023-02-28T09:55:10.192Z,49.14
2023-02-28T09:56:14.329Z,49.13
2023-02-28T09:57:18.523Z,49.13
2023-02-28T09:58:22.727Z,49.07
2023-02-28T09:59:26.889Z,49.05
2023-02-28T10:00:31.034Z,49.01
2023-02-28T10:01:35.667Z,48.96
2023-02-28T10:02:39.825Z,48.95
2023-02-28T10:03:43.975Z,48.98
2023-02-28T10:04:48.433Z,48.91
2023-02-28T10:05:52.638Z,48.91
2023-02-28T10:06:56.765Z,48.79
2023-02-28T10:08:00.940Z,48.79
2023-02-28T10:09:05.618Z,48.84
2023-02-28T10:10:09.890Z,48.79
2023-02-28T10:11:14.085Z,48.81
2023-02-28T10:12:18.219Z,48.83
2023-02-28T10:13:22.377Z,48.8
2023-02-28T10:14:26.860Z,48.77
2023-02-28T10:15:31.099Z,48.85
2023-02-28T10:16:35.296Z,48.84
2023-02-28T10:18:10.473Z,49.04
2023-02-28T10:19:14.959Z,49.06
2023-02-28T10:20:19.127Z,49.11
2023-02-28T10:21:23.297Z,49.12
2023-02-28T10:22:27.494Z,49.08
2023-02-28T10:23:31.696Z,49.02
2023-02-28T10:24:35.839Z,48.98
2023-02-28T10:25:40.013Z,48.95
2023-02-28T10:26:44.133Z,48.91
2023-02-28T10:27:48.268Z,48.82
2023-02-28T10:28:52.429Z,48.7
2023-02-28T10:29:56.571Z,48.44
2023-02-28T10:31:00.993Z,48.36
2023-02-28T10:32:05.335Z,48.49
2023-02-28T10:33:09.591Z,48.52
2023-02-28T10:34:13.760Z,48.46
2023-02-28T10:35:17.932Z,48.45
2023-02-28T10:36:22.353Z,48.54
2023-02-28T10:37:26.560Z,48.59
2023-02-28T10:38:30.720Z,48.64
2023-02-28T10:39:35.257Z,48.63
2023-02-28T10:40:39.461Z,48.55
2023-02-28T10:41:43.616Z,48.57
2023-02-28T10:42:48.000Z,48.59
2023-02-28T10:43:52.114Z,48.61
2023-02-28T10:44:56.388Z,48.61
2023-02-28T10:46:00.855Z,48.74
2023-02-28T10:47:05.047Z,48.93
2023-02-28T10:48:09.231Z,48.92
2023-02-28T10:49:13.414Z,48.94
2023-02-28T10:50:17.570Z,48.96
2023-02-28T10:51:21.763Z,48.89
2023-02-28T10:52:25.921Z,48.92
2023-02-28T10:53:30.119Z,48.97
2023-02-28T10:54:34.268Z,48.99
2023-02-28T10:55:38.780Z,49.11
2023-02-28T10:56:43.052Z,49.24
2023-02-28T10:57:47.231Z,49.26
2023-02-28T10:58:51.359Z,49.3
2023-02-28T10:59:55.562Z,49.34
2023-02-28T11:00:59.700Z,49.35
2023-02-28T11:02:05.693Z,49.38
2023-02-28T11:03:10.926Z,49.42
2023-02-28T11:04:15.595Z,49.41
2023-02-28T11:05:19.955Z,49.41
2023-02-28T11:06:24.141Z,49.5
2023-02-28T11:07:53.288Z,49.46
2023-02-28T11:08:57.764Z,49.63
2023-02-28T11:10:01.933Z,49.62
2023-02-28T11:11:06.082Z,49.58
2023-02-28T11:12:10.223Z,49.48
2023-02-28T11:13:14.791Z,49.52
2023-02-28T11:14:18.912Z,49.51
2023-02-28T11:15:23.197Z,49.59
2023-02-28T11:16:27.466Z,49.6
2023-02-28T11:17:31.836Z,49.69
2023-02-28T11:18:36.130Z,49.74
2023-02-28T11:19:40.287Z,49.84
2023-02-28T11:20:44.571Z,49.93
2023-02-28T11:21:48.720Z,49.98
2023-02-28T11:22:52.874Z,49.94
2023-02-28T11:23:57.040Z,49.9
2023-02-28T11:25:01.236Z,49.91
2023-02-28T11:26:05.345Z,49.95
2023-02-28T11:27:09.649Z,49.99
2023-02-28T11:28:13.777Z,49.99
2023-02-28T11:29:18.071Z,50.11
2023-02-28T11:30:22.187Z,50.14
2023-02-28T11:31:26.546Z,50.12
2023-02-28T11:32:31.293Z,50.23
2023-02-28T11:33:35.550Z,50.24
2023-02-28T11:34:39.680Z,50.18
2023-02-28T11:35:43.913Z,50.14
2023-02-28T11:36:48.128Z,50.08
2023-02-28T11:37:52.270Z,50.04
2023-02-28T11:38:56.418Z,50.22
2023-02-28T11:40:00.573Z,50.25
2023-02-28T11:41:04.750Z,50.29
2023-02-28T11:42:08.944Z,50.26
2023-02-28T11:43:13.093Z,50.22
2023-02-28T11:44:17.252Z,50.24
2023-02-28T11:45:21.399Z,50.22
2023-02-28T11:46:25.663Z,50.24
2023-02-28T11:47:29.888Z,50.33
2023-02-28T11:48:34.036Z,50.52
2023-02-28T11:49:38.178Z,50.51
2023-02-28T11:50:42.371Z,50.59
2023-02-28T11:51:46.548Z,50.61
2023-02-28T11:52:50.697Z,50.74
2023-02-28T11:53:54.878Z,50.78
2023-02-28T11:54:59.060Z,50.71
2023-02-28T11:56:03.211Z,50.82
2023-02-28T11:57:07.363Z,50.87
2023-02-28T11:58:11.506Z,50.85
2023-02-28T11:59:15.656Z,50.94
2023-02-28T12:00:19.795Z,50.91
2023-02-28T12:01:23.955Z,50.97
2023-02-28T12:02:28.356Z,51.03
2023-02-28T12:03:32.777Z,51.04
2023-02-28T12:04:36.976Z,51.11
2023-02-28T12:05:41.136Z,51.18
2023-02-28T12:06:45.252Z,51.2
2023-02-28T12:07:49.395Z,51.28
2023-02-28T12:08:53.541Z,51.26
2023-02-28T12:09:57.710Z,51.28
2023-02-28T12:11:01.894Z,51.44
2023-02-28T12:12:06.043Z,51.6
2023-02-28T12:13:10.296Z,51.59
2023-02-28T12:14:14.439Z,51.62
2023-02-28T12:15:18.586Z,51.7
2023-02-28T12:16:22.852Z,51.66
2023-02-28T12:17:27.249Z,51.67
2023-02-28T12:18:31.391Z,51.67
2023-02-28T12:19:35.504Z,51.72
2023-02-28T12:20:39.622Z,51.74
2023-02-28T12:21:44.192Z,51.75
2023-02-28T12:22:48.638Z,51.75
2023-02-28T12:23:52.763Z,51.99
2023-02-28T12:24:56.940Z,52
2023-02-28T12:26:10.326Z,52.02
2023-02-28T12:27:14.490Z,52.08
2023-02-28T12:28:18.657Z,52.2
2023-02-28T12:29:22.807Z,52.26
2023-02-28T12:30:26.996Z,52.26
2023-02-28T12:31:32.579Z,52.26
2023-02-28T12:32:37.116Z,52.28
2023-02-28T12:33:41.436Z,52.29
2023-02-28T12:34:45.585Z,52.35
2023-02-28T12:35:49.828Z,52.97
2023-02-28T12:36:54.028Z,53.14
2023-02-28T12:37:58.180Z,53.31
2023-02-28T12:39:02.328Z,53.61
2023-02-28T12:40:06.560Z,53.6
2023-02-28T12:41:10.745Z,53.59
2023-02-28T12:42:14.908Z,53.57
2023-02-28T12:43:19.030Z,53.67
2023-02-28T12:44:23.212Z,53.77
2023-02-28T12:45:27.523Z,53.76
2023-02-28T12:46:32.158Z,53.94
2023-02-28T12:47:36.309Z,54.08
2023-02-28T12:48:40.452Z,54.02
2023-02-28T12:49:44.610Z,54.09
2023-02-28T12:50:48.746Z,54.23
2023-02-28T12:51:52.895Z,54.24
2023-02-28T12:52:57.221Z,54.24
2023-02-28T12:54:01.360Z,54.18
2023-02-28T12:55:05.499Z,54.44
2023-02-28T12:56:09.653Z,54.46
2023-02-28T12:57:13.851Z,54.42
2023-02-28T12:58:18.031Z,54.3
2023-02-28T12:59:22.159Z,54.34
2023-02-28T13:00:26.313Z,54.41
2023-02-28T13:01:32.224Z,54.62
2023-02-28T13:02:36.857Z,54.72
2023-02-28T13:03:40.999Z,54.79
2023-02-28T13:04:45.249Z,55.09
2023-02-28T13:05:49.439Z,55.05
2023-02-28T13:06:53.636Z,54.99
2023-02-28T13:07:57.754Z,55.01
2023-02-28T13:09:01.948Z,55.26
2023-02-28T13:10:06.094Z,55.12
2023-02-28T13:11:23.053Z,55.17
2023-02-28T13:12:27.236Z,55.38
2023-02-28T13:13:31.406Z,55.58
2023-02-28T13:14:35.543Z,55.59
2023-02-28T13:15:40.114Z,55.6
2023-02-28T13:16:44.342Z,55.59
2023-02-28T13:17:48.502Z,55.57
2023-02-28T13:18:52.633Z,55.47
2023-02-28T13:19:56.808Z,55.58
2023-02-28T13:21:00.932Z,55.59
2023-02-28T13:22:05.115Z,55.62
2023-02-28T13:23:09.279Z,55.54
2023-02-28T13:24:13.408Z,55.44
2023-02-28T13:25:17.558Z,55.42
2023-02-28T13:26:21.729Z,55.4
2023-02-28T13:27:25.885Z,55.27
2023-02-28T13:28:30.657Z,55.38
2023-02-28T13:29:34.802Z,55.37
2023-02-28T13:30:39.067Z,55.37
2023-02-28T13:31:43.206Z,55.31
2023-02-28T13:32:47.364Z,55.32
2023-02-28T13:33:51.658Z,55.37
2023-02-28T13:34:55.852Z,55.45
2023-02-28T13:36:00.042Z,55.46
2023-02-28T13:37:04.216Z,55.49
2023-02-28T13:38:08.410Z,55.41
2023-02-28T13:39:12.686Z,55.42
2023-02-28T13:40:16.839Z,55.42
2023-02-28T13:41:21.023Z,55.43
2023-02-28T13:42:25.202Z,55.37
2023-02-28T13:43:37.729Z,55.43
2023-02-28T13:44:41.878Z,55.41
2023-02-28T13:45:46.277Z,55.39
2023-02-28T13:46:50.892Z,55.46
2023-02-28T13:47:55.082Z,55.38
2023-02-28T13:48:59.243Z,55.45
2023-02-28T13:50:03.363Z,55.31
2023-02-28T13:51:07.496Z,55.33
2023-02-28T13:52:11.651Z,55.28
2023-02-28T13:53:15.987Z,55.16
2023-02-28T13:54:20.168Z,54.81
2023-02-28T13:55:24.308Z,54.56
2023-02-28T13:56:29.181Z,54.64
2023-02-28T13:57:33.453Z,54.67
2023-02-28T13:58:37.659Z,54.7
2023-02-28T13:59:41.836Z,54.62
2023-02-28T14:00:46.746Z,54.7
2023-02-28T14:01:51.260Z,54.73
2023-02-28T14:02:55.703Z,54.81
2023-02-28T14:03:59.861Z,54.75
2023-02-28T14:05:04.338Z,54.72
2023-02-28T14:06:08.511Z,54.66
2023-02-28T14:07:12.640Z,54.67
2023-02-28T14:08:16.780Z,54.69
2023-02-28T14:09:20.933Z,54.64
2023-02-28T14:10:25.119Z,54.63
2023-02-28T14:11:29.255Z,54.67
2023-02-28T14:12:33.387Z,54.62
2023-02-28T14:13:37.529Z,54.56
2023-02-28T14:14:41.664Z,54.58
2023-02-28T14:15:46.092Z,54.52
2023-02-28T14:16:50.238Z,54.59
2023-02-28T14:17:54.541Z,54.67
2023-02-28T14:18:58.896Z,54.58
2023-02-28T14:20:03.074Z,54.6
2023-02-28T14:21:07.239Z,54.57
2023-02-28T14:22:11.393Z,54.62
2023-02-28T14:23:15.550Z,54.56
2023-02-28T14:24:19.694Z,54.57
2023-02-28T14:25:24.524Z,54.56
2023-02-28T14:26:30.432Z,54.58
2023-02-28T14:27:34.776Z,54.64
2023-02-28T14:28:38.920Z,54.6
2023-02-28T14:29:43.055Z,54.56
2023-02-28T14:30:47.346Z,54.63
2023-02-28T14:31:51.913Z,54.54
2023-02-28T14:32:56.098Z,54.67
2023-02-28T14:34:00.225Z,54.57
2023-02-28T14:35:04.493Z,54.54
2023-02-28T14:36:08.814Z,54.58
2023-02-28T14:37:13.014Z,54.66
2023-02-28T14:38:17.138Z,54.63
2023-02-28T14:39:21.299Z,54.6
2023-02-28T14:40:25.516Z,54.53
2023-02-28T14:41:29.729Z,54.59
2023-02-28T14:42:33.960Z,54.64
2023-02-28T14:43:38.158Z,54.66
2023-02-28T14:44:42.364Z,54.59
2023-02-28T14:45:46.488Z,54.49
2023-02-28T14:46:50.862Z,54.48
2023-02-28T14:47:55.043Z,54.56
2023-02-28T14:48:59.206Z,54.5
2023-02-28T14:50:03.384Z,54.47
2023-02-28T14:51:07.516Z,54.41
2023-02-28T14:52:11.768Z,54.37
2023-02-28T14:53:15.948Z,54.31
2023-02-28T14:54:20.092Z,54.31
2023-02-28T14:55:24.222Z,54.36
2023-02-28T14:56:28.928Z,54.29
2023-02-28T14:57:33.464Z,54.25
2023-02-28T14:58:37.688Z,54.33
2023-02-28T14:59:41.820Z,54.43
2023-02-28T15:00:45.983Z,54.31
2023-02-28T15:01:50.324Z,54.31
2023-02-28T15:02:54.528Z,54.23
2023-02-28T15:03:58.704Z,54.15
2023-02-28T15:05:03.200Z,54.21
2023-02-28T15:06:07.400Z,54.21
2023-02-28T15:07:11.584Z,54.18
2023-02-28T15:08:15.780Z,54.19
2023-02-28T15:09:20.013Z,54.18
2023-02-28T15:10:24.157Z,54.11
2023-02-28T15:11:28.688Z,54.11
2023-02-28T15:12:33.037Z,54.05
2023-02-28T15:13:37.247Z,54.02
2023-02-28T15:14:41.372Z,54.07
2023-02-28T15:16:05.162Z,54.12
2023-02-28T15:17:09.380Z,54.11
2023-02-28T15:18:13.511Z,54.19
2023-02-28T15:19:17.662Z,53.45
2023-02-28T15:20:21.991Z,53.32
2023-02-28T15:21:26.105Z,53.82
2023-02-28T15:22:30.287Z,53.87
2023-02-28T15:23:34.585Z,53.84
2023-02-28T15:24:38.728Z,53.77
2023-02-28T15:25:42.854Z,53.86
2023-02-28T15:26:47.023Z,53.83
2023-02-28T15:27:51.191Z,53.87
2023-02-28T15:28:55.343Z,53.85
2023-02-28T15:29:59.531Z,53.94
2023-02-28T15:31:03.961Z,53.93
2023-02-28T15:32:08.612Z,53.89
2023-02-28T15:33:12.902Z,53.91
2023-02-28T15:34:17.089Z,54.02
2023-02-28T15:35:21.258Z,53.97
2023-02-28T15:36:25.408Z,53.94
2023-02-28T15:37:29.626Z,53.93
2023-02-28T15:38:33.786Z,53.84
2023-02-28T15:39:37.946Z,53.93
2023-02-28T15:40:42.109Z,53.92
2023-02-28T15:41:46.234Z,54.11
2023-02-28T15:42:50.485Z,53.91
2023-02-28T15:43:54.663Z,53.83
2023-02-28T15:44:58.825Z,53.81
2023-02-28T15:46:03.157Z,53.84
2023-02-28T15:47:07.320Z,53.75
2023-02-28T15:48:16.322Z,53.75
2023-02-28T15:49:20.493Z,53.64
2023-02-28T15:50:24.713Z,53.71
2023-02-28T15:51:29.889Z,53.62
2023-02-28T15:52:34.170Z,53.52
2023-02-28T15:53:38.327Z,53.54
2023-02-28T15:54:42.792Z,53.5
2023-02-28T15:55:47.013Z,53.4
2023-02-28T15:56:51.150Z,53.41
2023-02-28T15:57:55.319Z,53.39
2023-02-28T15:58:59.476Z,53.46
2023-02-28T16:00:03.776Z,53.44
2023-02-28T16:01:07.938Z,53.41
2023-02-28T16:02:12.591Z,53.52
2023-02-28T16:03:16.945Z,53.56
2023-02-28T16:04:21.098Z,53.43
2023-02-28T16:05:25.251Z,53.6
2023-02-28T16:06:29.418Z,53.43
2023-02-28T16:07:33.590Z,53.63
2023-02-28T16:08:37.720Z,53.69
2023-02-28T16:09:41.836Z,53.62
2023-02-28T16:10:45.972Z,53.52
2023-02-28T16:11:50.165Z,53.4
2023-02-28T16:12:54.309Z,53.37
2023-02-28T16:13:58.508Z,53.37
2023-02-28T16:15:02.618Z,53.47
2023-02-28T16:16:06.922Z,53.4
2023-02-28T16:17:11.063Z,53.38
2023-02-28T16:18:15.207Z,53.43
2023-02-28T16:19:19.358Z,53.45
2023-02-28T16:20:23.576Z,53.45
2023-02-28T16:21:28.361Z,53.42
2023-02-28T16:22:32.800Z,53.41
2023-02-28T16:23:37.219Z,53.42
2023-02-28T16:24:41.574Z,53.49
2023-02-28T16:25:46.099Z,53.44
2023-02-28T16:26:50.536Z,53.41
2023-02-28T16:27:54.690Z,53.4
2023-02-28T16:28:58.827Z,53.4
2023-02-28T16:30:03.020Z,53.38
2023-02-28T16:31:07.570Z,53.3
2023-02-28T16:32:12.110Z,53.39
2023-02-28T16:33:16.289Z,53.36
2023-02-28T16:34:20.493Z,53.42
2023-02-28T16:35:24.665Z,53.36
2023-02-28T16:36:28.964Z,53.37
2023-02-28T16:37:33.123Z,53.29
2023-02-28T16:38:37.306Z,53.34
2023-02-28T16:39:41.464Z,53.32
2023-02-28T16:40:45.599Z,53.27
2023-02-28T16:41:49.734Z,53.4
2023-02-28T16:42:53.875Z,53.35
2023-02-28T16:43:58.035Z,53.34
2023-02-28T16:45:02.186Z,53.44
2023-02-28T16:46:06.548Z,53.35
2023-02-28T16:47:10.715Z,53.44
2023-02-28T16:48:14.844Z,53.44
2023-02-28T16:49:18.991Z,53.47
2023-02-28T16:50:23.188Z,53.43
2023-02-28T16:51:27.323Z,53.42
2023-02-28T16:52:31.485Z,53.46
2023-02-28T16:53:35.606Z,53.44
2023-02-28T16:54:39.743Z,53.42
2023-02-28T16:55:43.893Z,53.42
2023-02-28T16:56:48.066Z,53.41
2023-02-28T16:57:52.199Z,53.35
2023-02-28T16:58:56.392Z,53.37
2023-02-28T17:00:00.542Z,53.37
2023-02-28T17:01:04.801Z,53.4
2023-02-28T17:02:09.668Z,53.5
2023-02-28T17:03:31.920Z,53.51
2023-02-28T17:04:36.433Z,53.49
2023-02-28T17:05:40.649Z,53.5
2023-02-28T17:06:44.850Z,53.44
2023-02-28T17:07:49.078Z,53.52
2023-02-28T17:08:53.239Z,53.38
2023-02-28T17:09:57.519Z,53.79
2023-02-28T17:11:01.676Z,53.56
2023-02-28T17:12:05.818Z,53.34
2023-02-28T17:13:17.111Z,53.71
2023-02-28T17:14:21.268Z,53.75
2023-02-28T17:15:25.506Z,53.52
2023-02-28T17:16:30.961Z,53.3
2023-02-28T17:17:35.374Z,52.9
2023-02-28T17:18:39.529Z,52.38
2023-02-28T17:19:43.639Z,51.8
2023-02-28T17:20:47.847Z,51.26
2023-02-28T17:21:52.018Z,50.77
2023-02-28T17:22:56.165Z,50.26
2023-02-28T17:24:00.332Z,49.88
2023-02-28T17:25:04.487Z,49.45
2023-02-28T17:26:08.662Z,49.21
2023-02-28T17:27:12.799Z,48.91
2023-02-28T17:28:16.956Z,48.64
2023-02-28T17:29:21.079Z,48.44
2023-02-28T17:30:25.254Z,48.18
2023-02-28T17:31:29.779Z,47.88
2023-02-28T17:32:34.200Z,47.72
2023-02-28T17:33:38.316Z,47.61
2023-02-28T17:34:42.419Z,47.5
2023-02-28T17:35:46.764Z,47.32
2023-02-28T17:36:50.992Z,47.15
2023-02-28T17:37:55.354Z,46.99
2023-02-28T17:38:59.635Z,46.9
2023-02-28T17:40:03.778Z,46.78
2023-02-28T17:41:07.944Z,46.69
2023-02-28T17:42:12.135Z,46.47
2023-02-28T17:43:16.510Z,46.36
2023-02-28T17:44:20.672Z,46.19
2023-02-28T17:45:24.838Z,46.1
2023-02-28T17:46:30.248Z,45.96
2023-02-28T17:47:34.666Z,45.84
2023-02-28T17:48:38.966Z,45.76
2023-02-28T17:49:43.145Z,45.66
2023-02-28T17:50:47.283Z,45.53
2023-02-28T17:51:51.509Z,45.57
2023-02-28T17:52:55.665Z,45.47
2023-02-28T17:53:59.861Z,45.45
2023-02-28T17:55:04.027Z,45.39
2023-02-28T17:56:08.174Z,45.36
2023-02-28T17:57:12.294Z,45.3
2023-02-28T17:58:16.452Z,45.22
2023-02-28T17:59:20.621Z,45.22
2023-02-28T18:00:24.772Z,45.2
2023-02-28T18:01:29.278Z,45.16
2023-02-28T18:02:33.581Z,45.17
2023-02-28T18:03:37.735Z,45.15
2023-02-28T18:04:41.871Z,45.13
2023-02-28T18:05:46.002Z,45.12
2023-02-28T18:06:50.198Z,44.98
2023-02-28T18:07:54.332Z,44.9
2023-02-28T18:08:58.460Z,44.88
2023-02-28T18:10:02.616Z,45.06
2023-02-28T18:11:06.813Z,45.18
2023-02-28T18:12:11.016Z,45.27
2023-02-28T18:13:15.141Z,45.38
2023-02-28T18:14:19.319Z,45.51
2023-02-28T18:15:23.501Z,45.63
2023-02-28T18:16:28.277Z,45.74
2023-02-28T18:17:32.571Z,45.88
2023-02-28T18:18:36.717Z,45.97
2023-02-28T18:19:40.869Z,46.01
2023-02-28T18:20:45.005Z,46.26
2023-02-28T18:21:49.438Z,46.44
2023-02-28T18:22:53.581Z,46.5
2023-02-28T18:23:57.764Z,46.58
2023-02-28T18:25:01.943Z,46.64
2023-02-28T18:26:06.152Z,46.7
2023-02-28T18:27:10.309Z,46.81
2023-02-28T18:28:14.444Z,46.83
2023-02-28T18:29:18.636Z,46.92
2023-02-28T18:30:22.962Z,46.99
2023-02-28T18:31:27.357Z,47.12
2023-02-28T18:32:31.666Z,47.19
2023-02-28T18:33:35.823Z,47.29
2023-02-28T18:34:40.111Z,47.42
2023-02-28T18:35:44.420Z,47.56
2023-02-28T18:36:48.595Z,47.69
2023-02-28T18:37:52.749Z,48.02
2023-02-28T18:38:56.886Z,48.22
2023-02-28T18:40:01.128Z,48.17
2023-02-28T18:41:05.287Z,48.18
2023-02-28T18:42:09.426Z,48.32
2023-02-28T18:43:13.542Z,48.42
2023-02-28T18:44:22.789Z,48.55
2023-02-28T18:45:26.920Z,48.67
2023-02-28T18:46:32.215Z,48.77
2023-02-28T18:47:36.489Z,48.83
2023-02-28T18:48:40.647Z,48.88
2023-02-28T18:49:44.829Z,48.97
2023-02-28T18:50:48.948Z,49.03
2023-02-28T18:51:53.107Z,49.07
2023-02-28T18:52:57.250Z,49.16
2023-02-28T18:54:01.400Z,49.33
2023-02-28T18:55:05.602Z,49.43
2023-02-28T18:56:09.746Z,49.47
2023-02-28T18:57:13.918Z,49.58
2023-02-28T18:58:18.058Z,49.7
2023-02-28T18:59:22.235Z,49.77
2023-02-28T19:00:26.758Z,49.84
2023-02-28T19:01:31.164Z,49.92
2023-02-28T19:02:35.309Z,49.99
2023-02-28T19:03:39.567Z,50.04
2023-02-28T19:04:43.737Z,50.12
2023-02-28T19:05:49.571Z,50.21
2023-02-28T19:06:54.486Z,50.34
2023-02-28T19:07:58.622Z,50.4
2023-02-28T19:09:02.795Z,50.41
2023-02-28T19:10:06.934Z,50.37
2023-02-28T19:11:11.087Z,50.45
2023-02-28T19:12:15.234Z,50.56
2023-02-28T19:13:19.345Z,50.57
2023-02-28T19:14:23.522Z,50.67
2023-02-28T19:15:27.678Z,50.74
2023-02-28T19:16:33.283Z,50.76
2023-02-28T19:17:37.599Z,50.97
2023-02-28T19:18:41.704Z,51.09
2023-02-28T19:19:46.540Z,51.02
2023-02-28T19:20:50.672Z,51.04
2023-02-28T19:21:57.395Z,51.18
2023-02-28T19:23:03.335Z,51.22
2023-02-28T19:24:07.546Z,51.36
2023-02-28T19:25:11.693Z,51.37
2023-02-28T19:26:15.889Z,51.54
2023-02-28T19:27:20.074Z,51.47
2023-02-28T19:28:24.850Z,51.54
2023-02-28T19:29:29.809Z,51.41
2023-02-28T19:30:34.049Z,51.61
2023-02-28T19:31:38.492Z,51.5
2023-02-28T19:32:42.797Z,51.54
2023-02-28T19:33:46.936Z,51.57
2023-02-28T19:34:51.479Z,51.82
2023-02-28T19:35:55.866Z,51.63
2023-02-28T19:37:00.004Z,51.74
2023-02-28T19:38:04.140Z,51.68
2023-02-28T19:39:08.318Z,51.67
2023-02-28T19:40:12.475Z,51.91
2023-02-28T19:41:16.660Z,51.77
2023-02-28T19:42:20.808Z,51.77
2023-02-28T19:43:24.940Z,51.69
2023-02-28T19:44:29.097Z,51.74
2023-02-28T19:45:33.361Z,51.75
2023-02-28T19:46:37.501Z,51.69
2023-02-28T19:47:41.684Z,51.71
2023-02-28T19:48:45.998Z,51.68
2023-02-28T19:49:50.188Z,51.82
2023-02-28T19:50:54.337Z,51.86
2023-02-28T19:51:58.509Z,51.77
2023-02-28T19:53:02.781Z,51.79
2023-02-28T19:54:06.964Z,51.77
2023-02-28T19:55:11.104Z,51.79
2023-02-28T19:56:15.281Z,51.81
2023-02-28T19:57:19.418Z,51.9
2023-02-28T19:58:23.606Z,52.01
2023-02-28T19:59:40.964Z,52.03
2023-02-28T20:00:45.116Z,52.03
2023-02-28T20:01:49.279Z,52.04
2023-02-28T20:02:53.429Z,52.08
2023-02-28T20:03:57.556Z,52.06
2023-02-28T20:05:03.293Z,52.1
2023-02-28T20:06:07.439Z,52.14
2023-02-28T20:07:11.592Z,52.13
2023-02-28T20:08:15.728Z,52.04
2023-02-28T20:09:19.851Z,51.98
2023-02-28T20:10:24.017Z,51.84
2023-02-28T20:11:28.263Z,51.76
2023-02-28T20:12:32.545Z,51.61
2023-02-28T20:13:36.729Z,51.53
2023-02-28T20:14:40.879Z,51.43
2023-02-28T20:15:45.041Z,51.33
2023-02-28T20:16:49.431Z,51.34
2023-02-28T20:17:53.598Z,51.21
2023-02-28T20:18:57.765Z,51.15
2023-02-28T20:20:01.934Z,51.1
2023-02-28T20:21:06.085Z,51.05
2023-02-28T20:22:10.211Z,51.01
2023-02-28T20:23:14.334Z,51.02
2023-02-28T20:24:18.483Z,50.97
2023-02-28T20:25:22.644Z,50.89
2023-02-28T20:26:26.951Z,50.85
2023-02-28T20:27:31.190Z,50.86
2023-02-28T20:28:35.389Z,50.8
2023-02-28T20:29:39.515Z,50.82
2023-02-28T20:30:43.850Z,50.9
2023-02-28T20:31:48.229Z,50.88
2023-02-28T20:32:52.575Z,50.92
2023-02-28T20:33:56.738Z,50.99
2023-02-28T20:35:00.887Z,51.03
2023-02-28T20:36:05.145Z,51.09
2023-02-28T20:37:09.280Z,51.12
2023-02-28T20:38:13.424Z,51.14
2023-02-28T20:39:17.573Z,51.11
2023-02-28T20:40:21.728Z,51.12
2023-02-28T20:41:25.853Z,51.19
2023-02-28T20:42:29.996Z,51.23
2023-02-28T20:43:34.133Z,51.24
2023-02-28T20:44:38.279Z,51.26
2023-02-28T20:45:42.400Z,51.29
2023-02-28T20:46:46.604Z,51.33
2023-02-28T20:47:50.840Z,51.34
2023-02-28T20:48:54.992Z,51.39
2023-02-28T20:49:59.162Z,51.37
2023-02-28T20:51:03.314Z,51.37
2023-02-28T20:52:07.459Z,51.41
2023-02-28T20:53:11.622Z,51.46
2023-02-28T20:54:15.750Z,51.51
2023-02-28T20:55:19.890Z,51.6
2023-02-28T20:56:24.063Z,51.5
2023-02-28T20:57:28.192Z,51.56
2023-02-28T20:58:32.304Z,51.61
2023-02-28T20:59:36.484Z,51.65
2023-02-28T21:00:40.664Z,51.62
2023-02-28T21:01:45.005Z,51.65
2023-02-28T21:02:49.393Z,51.71
2023-02-28T21:03:53.590Z,51.73
2023-02-28T21:04:57.722Z,51.71
2023-02-28T21:06:01.903Z,51.79
2023-02-28T21:07:06.065Z,51.88
2023-02-28T21:08:10.240Z,51.83
2023-02-28T21:09:14.402Z,51.87
2023-02-28T21:10:18.529Z,51.9
2023-02-28T21:11:22.669Z,51.9
2023-02-28T21:12:26.828Z,51.93
2023-02-28T21:13:30.948Z,51.9
2023-02-28T21:14:35.090Z,51.96
2023-02-28T21:15:39.446Z,51.93
2023-02-28T21:16:43.711Z,52.05
2023-02-28T21:17:47.891Z,52.09
2023-02-28T21:18:52.058Z,52.04
2023-02-28T21:19:56.232Z,52.08
2023-02-28T21:21:00.360Z,52.04
2023-02-28T21:22:04.498Z,52.19
2023-02-28T21:23:08.630Z,52.22
2023-02-28T21:24:12.752Z,52.12
2023-02-28T21:25:16.939Z,52.35
2023-02-28T21:26:21.086Z,52.36
2023-02-28T21:27:25.206Z,52.34
2023-02-28T21:28:29.380Z,52.21
2023-02-28T21:29:33.523Z,52.27
2023-02-28T21:30:37.652Z,52.12
2023-02-28T21:31:41.910Z,52.05
2023-02-28T21:32:46.037Z,51.98
2023-02-28T21:33:50.187Z,51.98
2023-02-28T21:34:54.343Z,52.01
2023-02-28T21:35:58.625Z,52.25
2023-02-28T21:37:02.783Z,52.11
2023-02-28T21:38:06.920Z,52.22
2023-02-28T21:39:11.079Z,52.09
2023-02-28T21:40:15.242Z,52.09
2023-02-28T21:41:19.392Z,52.04
2023-02-28T21:42:23.531Z,51.95
2023-02-28T21:43:27.644Z,51.89
2023-02-28T21:44:31.964Z,51.91
2023-02-28T21:45:36.118Z,51.89
2023-02-28T21:46:40.466Z,52.1
2023-02-28T21:47:44.609Z,52.31
2023-02-28T21:48:48.784Z,52.33
2023-02-28T21:49:52.966Z,52.38
2023-02-28T21:50:57.095Z,52.12
2023-02-28T21:52:01.264Z,52.5
2023-02-28T21:53:05.407Z,52.46
2023-02-28T21:54:09.545Z,52.3
2023-02-28T21:55:13.743Z,51.99
2023-02-28T21:56:17.879Z,52.49
2023-02-28T21:57:22.431Z,52.1
2023-02-28T21:58:26.708Z,52.38
2023-02-28T21:59:30.849Z,52.15
2023-02-28T22:00:35.006Z,51.95
2023-02-28T22:01:39.468Z,51.02
2023-02-28T22:02:43.849Z,50.82
2023-02-28T22:03:48.028Z,50.8
2023-02-28T22:04:52.173Z,51.06
2023-02-28T22:05:56.376Z,48.92
2023-02-28T22:07:00.526Z,49.4
2023-02-28T22:08:04.698Z,50.42
2023-02-28T22:09:08.859Z,50.6
2023-02-28T22:10:12.994Z,50.73
2023-02-28T22:11:17.169Z,50.91
2023-02-28T22:12:21.300Z,50.89
2023-02-28T22:13:25.437Z,51.04